aviador You're here:

KBIL Decoded Metar

BILLINGS in MT, USA
Report Time2017-04-28 07:53:00
UTC Time2017-04-28 08:12:58
Flight Rules ifr IFR
Wind030° at 07 kt
W.Decomp.*RWY 07: 4.1 kt HW 5.7 kt LCW
RWY 10: 0.7 kt HW 7 kt LCW
W.Rank030° ranks 9
Current wind is below 030° avg. (8.1)
Visibility9999 m
Phenomena:Light Rain
Clouds:Broken 005 Hf
Overcast 015 Hf
Expected CloudBase > 400 ft AGL from Temp-Dew spread
Ceiling500 ft
Temp04°C (ISA -4)
Dew Point03°C (93% RH)
AAT-0.0°C
QNH1009 hPa
Density Alt3,363 ft
Elevation3,579 ft
Report Wrong Elevation
Raw Report
KBIL 280753Z 03007KT 10SM -RA BKN005 OVC015 04/03 A2981=

Extra information for KBIL:More info

Metar Taf Metar & Taf Last 4 Metars F.Rules Stats Wind Profile Meteogram Temp Stats Airport Information Weather charts Add Link Nearby VenuesMetar ALERT Operation Metar Decoded Social comments

AIRNAV info for KBIL